Time;durP1;ratioP1;P1;durP2;ratioP2;P2;SDS_P1;SDS_P2;PMS_P1;PMS_P2;Temp;Humidity;BMP_temperature;BMP_pressure;BME280_temperature;BME280_humidity;BME280_pressure;Samples;Min_cycle;Max_cycle;Signal;HPM_P1;HPM_P2
2023/09/29 00:02:15;;;;;;;35.45;22.05;;;;;;;;;;5056538;28;20453;-48
2023/09/29 00:04:41;;;;;;;37.60;23.33;;;;;;;;;;5065016;28;20470;-49
2023/09/29 00:07:07;;;;;;;37.35;21.88;;;;;;;;;;5057445;28;20502;-48
2023/09/29 00:09:33;;;;;;;36.15;21.92;;;;;;;;;;5062840;28;20031;-46
2023/09/29 00:11:59;;;;;;;36.42;20.60;;;;;;;;;;5058674;28;20124;-52
2023/09/29 00:14:25;;;;;;;42.22;24.75;;;;;;;;;;5057071;28;20456;-48
2023/09/29 00:16:50;;;;;;;37.80;21.10;;;;;;;;;;5059743;28;20036;-50
2023/09/29 00:19:15;;;;;;;39.67;24.60;;;;;;;;;;5057054;28;20529;-47
2023/09/29 00:21:41;;;;;;;37.95;21.33;;;;;;;;;;5064791;28;20498;-49
2023/09/29 00:24:06;;;;;;;34.83;19.80;;;;;;;;;;5060079;28;20070;-52
2023/09/29 00:26:32;;;;;;;36.15;24.58;;;;;;;;;;5057892;28;20055;-50
2023/09/29 00:28:59;;;;;;;35.25;20.45;;;;;;;;;;5055672;28;20517;-51
2023/09/29 00:31:24;;;;;;;30.98;15.88;;;;;;;;;;5059458;28;20036;-48
2023/09/29 00:33:50;;;;;;;29.13;16.13;;;;;;;;;;5061517;28;20467;-46
2023/09/29 00:36:16;;;;;;;27.15;17.75;;;;;;;;;;5051826;28;20073;-48
2023/09/29 00:38:41;;;;;;;29.23;16.95;;;;;;;;;;5059946;28;20117;-52
2023/09/29 00:41:06;;;;;;;26.88;15.70;;;;;;;;;;5057788;28;20375;-51
2023/09/29 00:43:33;;;;;;;29.15;18.40;;;;;;;;;;5061501;28;20029;-46
2023/09/29 00:46:00;;;;;;;20.05;13.35;;;;;;;;;;5059653;28;20135;-52
2023/09/29 00:48:29;;;;;;;20.90;13.77;;;;;;;;;;5059804;28;20122;-50
2023/09/29 00:50:56;;;;;;;24.48;14.68;;;;;;;;;;5063200;28;20033;-51
2023/09/29 00:53:22;;;;;;;23.05;14.40;;;;;;;;;;5054655;28;20481;-50
2023/09/29 00:55:48;;;;;;;24.60;13.95;;;;;;;;;;5056083;28;20044;-49
2023/09/29 00:58:15;;;;;;;25.58;16.80;;;;;;;;;;5052508;28;20029;-50
2023/09/29 01:00:41;;;;;;;22.88;14.43;;;;;;;;;;5056024;28;20025;-51
2023/09/29 01:03:14;;;;;;;25.23;16.55;;;;;;;;;;5064652;28;20064;-51
2023/09/29 01:05:44;;;;;;;25.20;14.20;;;;;;;;;;5056667;28;20035;-53
2023/09/29 01:08:12;;;;;;;23.30;13.52;;;;;;;;;;5056809;28;20104;-49
2023/09/29 01:10:40;;;;;;;26.67;14.88;;;;;;;;;;5057572;28;20048;-47
2023/09/29 01:13:06;;;;;;;20.58;13.57;;;;;;;;;;5053067;28;20078;-49
2023/09/29 01:15:33;;;;;;;15.48;10.15;;;;;;;;;;5057416;28;20041;-48
2023/09/29 01:17:58;;;;;;;12.50;8.70;;;;;;;;;;5058296;28;20032;-51
2023/09/29 01:20:30;;;;;;;11.27;8.35;;;;;;;;;;5065835;28;20040;-49
2023/09/29 01:22:56;;;;;;;8.48;6.90;;;;;;;;;;5057046;28;20089;-49
2023/09/29 01:25:22;;;;;;;10.00;8.07;;;;;;;;;;5058304;28;20040;-49
2023/09/29 01:27:49;;;;;;;10.25;7.60;;;;;;;;;;5062852;28;20390;-52
2023/09/29 01:30:16;;;;;;;12.73;7.35;;;;;;;;;;5059032;28;20041;-51
2023/09/29 01:32:42;;;;;;;9.93;8.15;;;;;;;;;;5056941;28;20071;-50
2023/09/29 01:35:10;;;;;;;11.25;8.50;;;;;;;;;;5057123;28;20467;-51
2023/09/29 01:37:36;;;;;;;10.55;6.47;;;;;;;;;;5057524;28;20128;-51
2023/09/29 01:40:01;;;;;;;11.32;7.80;;;;;;;;;;5058338;28;20063;-49
2023/09/29 01:42:26;;;;;;;15.40;8.88;;;;;;;;;;5050682;28;20697;-47
2023/09/29 01:44:52;;;;;;;14.93;9.35;;;;;;;;;;5057364;28;20033;-49
2023/09/29 01:47:17;;;;;;;15.15;8.60;;;;;;;;;;5056384;28;20041;-49
2023/09/29 01:49:43;;;;;;;22.38;11.55;;;;;;;;;;5059199;28;20025;-46
2023/09/29 01:52:08;;;;;;;21.48;11.13;;;;;;;;;;5057981;28;20039;-51
2023/09/29 01:54:36;;;;;;;26.83;13.60;;;;;;;;;;5046671;28;20056;-48
2023/09/29 01:57:01;;;;;;;26.45;13.32;;;;;;;;;;5051373;28;20040;-47
2023/09/29 01:59:30;;;;;;;22.95;12.15;;;;;;;;;;5054745;28;20033;-49
2023/09/29 02:01:56;;;;;;;25.00;13.48;;;;;;;;;;5061152;28;20048;-52
2023/09/29 02:04:21;;;;;;;31.30;14.40;;;;;;;;;;5054227;28;20034;-50
2023/09/29 02:06:49;;;;;;;28.48;13.82;;;;;;;;;;5055791;28;20053;-51
2023/09/29 02:09:14;;;;;;;19.33;11.05;;;;;;;;;;5049721;28;20415;-50
2023/09/29 02:11:42;;;;;;;16.48;9.00;;;;;;;;;;5058675;28;20037;-51
2023/09/29 02:14:07;;;;;;;14.07;8.63;;;;;;;;;;5053879;28;20040;-52
2023/09/29 02:16:34;;;;;;;12.52;7.22;;;;;;;;;;5059142;28;20033;-50
2023/09/29 02:19:00;;;;;;;12.75;8.18;;;;;;;;;;5056326;28;20032;-48
2023/09/29 02:21:28;;;;;;;14.45;9.25;;;;;;;;;;5061702;28;20048;-49
2023/09/29 02:23:55;;;;;;;11.48;7.82;;;;;;;;;;5055230;28;20029;-51
2023/09/29 02:26:22;;;;;;;14.18;9.15;;;;;;;;;;5055444;28;20037;-52
2023/09/29 02:28:48;;;;;;;13.82;8.95;;;;;;;;;;5057878;28;20052;-53
2023/09/29 02:31:14;;;;;;;12.25;9.50;;;;;;;;;;5055592;28;20034;-47
2023/09/29 02:33:40;;;;;;;13.23;8.02;;;;;;;;;;5054057;28;20036;-50
2023/09/29 02:36:07;;;;;;;12.75;9.68;;;;;;;;;;5061728;28;20052;-51
2023/09/29 02:38:33;;;;;;;12.00;8.57;;;;;;;;;;5047595;28;20025;-49
2023/09/29 02:40:59;;;;;;;12.25;9.43;;;;;;;;;;5056952;28;20052;-50
2023/09/29 02:43:30;;;;;;;13.30;8.75;;;;;;;;;;5059123;28;20037;-48
2023/09/29 02:45:56;;;;;;;11.20;8.75;;;;;;;;;;5054793;28;20207;-47
2023/09/29 02:48:22;;;;;;;12.35;9.10;;;;;;;;;;5044959;28;20029;-50
2023/09/29 02:50:47;;;;;;;12.05;8.90;;;;;;;;;;5054617;28;20036;-50
2023/09/29 02:53:14;;;;;;;12.90;9.77;;;;;;;;;;5053294;28;20033;-49
2023/09/29 02:55:40;;;;;;;13.43;9.32;;;;;;;;;;5053667;28;20059;-50
2023/09/29 02:58:05;;;;;;;13.00;9.05;;;;;;;;;;5062940;28;20032;-49
2023/09/29 03:00:31;;;;;;;12.13;9.18;;;;;;;;;;5055211;28;20095;-49
2023/09/29 03:02:57;;;;;;;9.43;8.23;;;;;;;;;;5060461;28;20067;-49
2023/09/29 03:05:23;;;;;;;11.27;7.95;;;;;;;;;;5054075;28;20037;-50
2023/09/29 03:07:49;;;;;;;10.23;8.77;;;;;;;;;;5055398;28;20076;-51
2023/09/29 03:10:16;;;;;;;8.90;7.93;;;;;;;;;;5068774;28;20056;-49
2023/09/29 03:12:43;;;;;;;9.20;7.40;;;;;;;;;;5056543;28;20032;-47
2023/09/29 03:15:15;;;;;;;10.93;8.18;;;;;;;;;;5061330;28;20068;-48
2023/09/29 03:17:42;;;;;;;10.02;7.95;;;;;;;;;;5056932;28;20036;-50
2023/09/29 03:20:11;;;;;;;7.38;6.65;;;;;;;;;;5053439;28;20055;-52
2023/09/29 03:22:40;;;;;;;10.70;9.75;;;;;;;;;;5055510;28;20021;-49
2023/09/29 03:25:07;;;;;;;7.55;6.70;;;;;;;;;;5054454;28;20029;-52
2023/09/29 03:27:34;;;;;;;7.97;7.20;;;;;;;;;;5059634;28;20029;-50
2023/09/29 03:30:00;;;;;;;7.07;6.35;;;;;;;;;;5055102;28;20033;-50
2023/09/29 03:32:26;;;;;;;6.57;5.93;;;;;;;;;;5060127;28;20029;-49
2023/09/29 03:34:52;;;;;;;6.60;5.53;;;;;;;;;;5053460;28;20033;-46
2023/09/29 03:37:18;;;;;;;7.50;6.75;;;;;;;;;;5057242;28;20041;-50
2023/09/29 03:39:43;;;;;;;7.85;6.60;;;;;;;;;;5053032;28;20060;-51
2023/09/29 03:42:09;;;;;;;8.07;7.25;;;;;;;;;;5059238;28;20036;-50
2023/09/29 03:44:34;;;;;;;7.03;5.95;;;;;;;;;;5055074;28;20031;-49
2023/09/29 03:47:00;;;;;;;6.03;5.47;;;;;;;;;;5055377;28;20037;-49
2023/09/29 03:49:26;;;;;;;7.63;5.45;;;;;;;;;;5055521;28;20035;-46
2023/09/29 03:51:52;;;;;;;6.78;6.18;;;;;;;;;;5056313;28;20504;-50
2023/09/29 03:54:18;;;;;;;9.63;5.82;;;;;;;;;;5058498;28;20080;-52
2023/09/29 03:56:44;;;;;;;8.05;5.97;;;;;;;;;;5053802;28;20029;-46
2023/09/29 03:59:10;;;;;;;8.40;5.93;;;;;;;;;;5055111;28;20036;-50
2023/09/29 04:01:36;;;;;;;6.25;5.13;;;;;;;;;;5061470;28;20519;-51
2023/09/29 04:04:02;;;;;;;6.47;5.82;;;;;;;;;;5051240;28;20029;-49
2023/09/29 04:06:28;;;;;;;6.32;5.72;;;;;;;;;;5054966;28;20057;-49
2023/09/29 04:08:55;;;;;;;7.28;6.57;;;;;;;;;;5057724;28;20039;-51
2023/09/29 04:11:21;;;;;;;5.88;4.95;;;;;;;;;;5055980;28;20083;-51
2023/09/29 04:13:46;;;;;;;6.32;5.32;;;;;;;;;;5052219;28;20021;-49
2023/09/29 04:16:14;;;;;;;5.85;4.88;;;;;;;;;;5057799;28;20041;-50
2023/09/29 04:18:39;;;;;;;6.22;5.68;;;;;;;;;;5061775;28;20044;-50
2023/09/29 04:21:11;;;;;;;5.55;4.95;;;;;;;;;;5055900;28;20040;-48
2023/09/29 04:23:37;;;;;;;6.15;5.43;;;;;;;;;;5041499;28;20033;-49
2023/09/29 04:26:02;;;;;;;7.40;4.60;;;;;;;;;;5061096;28;20041;-51
2023/09/29 04:28:28;;;;;;;7.20;4.57;;;;;;;;;;5063626;28;20024;-51
2023/09/29 04:30:53;;;;;;;5.22;4.82;;;;;;;;;;5049274;28;20040;-49
2023/09/29 04:33:18;;;;;;;7.05;4.90;;;;;;;;;;5059584;28;20081;-48
2023/09/29 04:35:44;;;;;;;6.50;4.85;;;;;;;;;;5062660;28;20039;-51
2023/09/29 04:38:10;;;;;;;6.30;5.57;;;;;;;;;;5056801;28;20057;-54
2023/09/29 04:40:35;;;;;;;5.85;5.15;;;;;;;;;;5057530;28;20120;-51
2023/09/29 04:43:02;;;;;;;6.05;4.95;;;;;;;;;;5059992;28;20112;-48
2023/09/29 04:45:27;;;;;;;10.18;5.35;;;;;;;;;;5055560;28;22033;-50
2023/09/29 04:47:53;;;;;;;5.85;5.28;;;;;;;;;;5053431;28;20036;-50
2023/09/29 04:50:18;;;;;;;7.00;6.28;;;;;;;;;;5054632;28;20124;-50
2023/09/29 04:52:44;;;;;;;6.70;5.68;;;;;;;;;;5055290;28;20074;-53
2023/09/29 04:55:09;;;;;;;7.78;4.90;;;;;;;;;;5057793;28;20363;-51
2023/09/29 04:57:35;;;;;;;5.78;5.13;;;;;;;;;;5057657;28;20028;-51
2023/09/29 05:00:00;;;;;;;6.43;5.90;;;;;;;;;;5065710;28;20439;-53
2023/09/29 05:02:29;;;;;;;6.68;4.90;;;;;;;;;;5057007;28;20067;-48
2023/09/29 05:04:55;;;;;;;5.82;5.25;;;;;;;;;;5045539;28;20029;-50
2023/09/29 05:07:20;;;;;;;7.90;5.97;;;;;;;;;;5067060;28;20124;-51
2023/09/29 05:09:45;;;;;;;7.45;5.57;;;;;;;;;;5060389;28;20056;-51
2023/09/29 05:12:12;;;;;;;6.30;5.70;;;;;;;;;;5049893;28;20399;-50
2023/09/29 05:14:37;;;;;;;6.45;5.32;;;;;;;;;;5057180;28;20028;-48
2023/09/29 05:17:03;;;;;;;6.30;5.38;;;;;;;;;;5058483;28;20045;-48
2023/09/29 05:19:28;;;;;;;5.82;5.30;;;;;;;;;;5060309;28;20032;-52
2023/09/29 05:21:53;;;;;;;6.00;4.57;;;;;;;;;;5062285;28;20401;-47
2023/09/29 05:24:19;;;;;;;5.20;4.35;;;;;;;;;;5060758;28;20029;-50
2023/09/29 05:26:44;;;;;;;6.32;5.10;;;;;;;;;;5053108;28;20033;-49
2023/09/29 05:29:10;;;;;;;6.00;5.43;;;;;;;;;;5054883;28;20082;-50
2023/09/29 05:31:36;;;;;;;6.13;4.65;;;;;;;;;;5051108;28;20033;-51
2023/09/29 05:34:01;;;;;;;5.60;5.03;;;;;;;;;;5050875;28;20037;-52
2023/09/29 05:36:29;;;;;;;5.05;4.40;;;;;;;;;;5043664;28;20061;-49
2023/09/29 05:38:54;;;;;;;7.47;5.50;;;;;;;;;;5058241;28;20032;-52
2023/09/29 05:41:20;;;;;;;7.15;5.80;;;;;;;;;;5046387;28;20518;-48
2023/09/29 05:43:45;;;;;;;6.90;4.43;;;;;;;;;;5043938;28;20545;-48
2023/09/29 05:46:10;;;;;;;7.20;6.60;;;;;;;;;;5060684;28;20508;-47
2023/09/29 05:48:37;;;;;;;5.72;5.13;;;;;;;;;;5054118;28;20043;-50
2023/09/29 05:51:03;;;;;;;6.38;5.65;;;;;;;;;;5054646;28;20064;-51
2023/09/29 05:53:28;;;;;;;5.97;5.45;;;;;;;;;;5057312;28;20436;-48
2023/09/29 05:55:53;;;;;;;5.75;4.85;;;;;;;;;;5063563;28;20048;-49
2023/09/29 05:58:20;;;;;;;6.13;5.53;;;;;;;;;;5050563;28;20028;-51
2023/09/29 06:00:45;;;;;;;5.28;4.57;;;;;;;;;;5054938;28;20122;-49
2023/09/29 06:03:11;;;;;;;6.15;4.32;;;;;;;;;;5055288;28;20094;-51
2023/09/29 06:05:36;;;;;;;6.35;5.75;;;;;;;;;;5063313;28;20041;-48
2023/09/29 06:08:01;;;;;;;7.40;4.95;;;;;;;;;;5059619;28;20028;-51
2023/09/29 06:10:27;;;;;;;4.70;4.28;;;;;;;;;;5058024;28;20056;-49
2023/09/29 06:12:53;;;;;;;8.38;4.80;;;;;;;;;;5059424;28;20028;-52
2023/09/29 06:15:19;;;;;;;6.40;5.03;;;;;;;;;;5056058;28;20034;-50
2023/09/29 06:17:45;;;;;;;5.95;4.35;;;;;;;;;;5062109;28;20374;-48
2023/09/29 06:20:10;;;;;;;6.03;5.03;;;;;;;;;;5054462;28;20046;-50
2023/09/29 06:22:36;;;;;;;11.13;5.45;;;;;;;;;;5056571;28;20602;-51
2023/09/29 06:25:01;;;;;;;5.70;5.05;;;;;;;;;;5058725;28;20028;-51
2023/09/29 06:27:27;;;;;;;7.15;4.93;;;;;;;;;;5054157;28;20494;-51
2023/09/29 06:29:53;;;;;;;8.63;4.50;;;;;;;;;;5055914;28;20076;-50
2023/09/29 06:32:18;;;;;;;7.88;4.28;;;;;;;;;;5049358;28;20047;-51
2023/09/29 06:34:44;;;;;;;9.38;4.43;;;;;;;;;;5053692;28;20028;-50
2023/09/29 06:37:09;;;;;;;5.82;5.13;;;;;;;;;;5059004;28;20029;-47
2023/09/29 06:39:35;;;;;;;7.30;4.57;;;;;;;;;;5052250;28;20035;-50
2023/09/29 06:42:02;;;;;;;5.13;4.63;;;;;;;;;;5056913;28;20037;-51
2023/09/29 06:44:28;;;;;;;13.95;4.57;;;;;;;;;;5057149;28;20457;-47
2023/09/29 06:46:53;;;;;;;6.43;4.53;;;;;;;;;;5060899;28;20145;-50
2023/09/29 06:49:18;;;;;;;9.73;6.05;;;;;;;;;;5047584;28;20075;-49
2023/09/29 06:51:44;;;;;;;9.60;4.40;;;;;;;;;;5044628;28;20059;-49
2023/09/29 06:54:10;;;;;;;7.88;5.50;;;;;;;;;;5052314;28;20044;-52
2023/09/29 06:56:36;;;;;;;7.85;4.55;;;;;;;;;;5050316;28;20568;-49
2023/09/29 06:59:02;;;;;;;7.35;5.47;;;;;;;;;;5054457;28;20033;-50
2023/09/29 07:01:27;;;;;;;7.97;4.78;;;;;;;;;;5063335;28;20036;-52
2023/09/29 07:03:53;;;;;;;5.13;4.63;;;;;;;;;;5062395;28;20116;-51
2023/09/29 07:06:22;;;;;;;7.55;5.55;;;;;;;;;;5052059;28;20049;-52
2023/09/29 07:08:48;;;;;;;8.02;6.13;;;;;;;;;;5056719;28;20025;-46
2023/09/29 07:11:13;;;;;;;6.20;5.35;;;;;;;;;;5055183;28;20040;-48
2023/09/29 07:13:38;;;;;;;6.72;4.80;;;;;;;;;;5062127;28;20048;-48
2023/09/29 07:16:04;;;;;;;8.32;5.93;;;;;;;;;;5054032;28;20139;-51
2023/09/29 07:18:29;;;;;;;7.47;4.40;;;;;;;;;;5056807;28;20647;-50
2023/09/29 07:20:57;;;;;;;7.45;5.65;;;;;;;;;;5055162;28;20146;-50
2023/09/29 07:23:23;;;;;;;5.80;4.55;;;;;;;;;;5054220;28;20033;-51
2023/09/29 07:25:50;;;;;;;7.45;5.03;;;;;;;;;;5060651;28;20033;-48
2023/09/29 07:28:22;;;;;;;7.18;6.28;;;;;;;;;;5054441;28;20021;-48
2023/09/29 07:30:48;;;;;;;8.77;5.47;;;;;;;;;;5056161;28;20549;-46
2023/09/29 07:33:14;;;;;;;9.80;5.75;;;;;;;;;;5052978;28;20091;-50
2023/09/29 07:35:43;;;;;;;6.05;5.07;;;;;;;;;;5059187;28;20044;-51
2023/09/29 07:38:09;;;;;;;6.45;5.03;;;;;;;;;;5055932;28;20036;-51
2023/09/29 07:40:34;;;;;;;5.40;3.95;;;;;;;;;;5054907;28;20402;-51
2023/09/29 07:43:04;;;;;;;4.40;3.72;;;;;;;;;;5055916;28;20025;-50
2023/09/29 07:45:29;;;;;;;8.43;5.20;;;;;;;;;;5070846;28;20052;-50
2023/09/29 07:47:55;;;;;;;10.23;4.90;;;;;;;;;;5053805;28;20025;-50
2023/09/29 07:50:20;;;;;;;5.35;4.20;;;;;;;;;;5056496;28;20036;-51
2023/09/29 07:52:46;;;;;;;9.65;4.50;;;;;;;;;;5055014;28;20032;-51
2023/09/29 07:55:11;;;;;;;5.97;5.38;;;;;;;;;;5058140;28;20103;-48
2023/09/29 07:57:37;;;;;;;7.22;4.70;;;;;;;;;;5059463;28;20436;-53
2023/09/29 08:00:05;;;;;;;6.20;4.18;;;;;;;;;;5055822;28;20032;-52
2023/09/29 08:02:31;;;;;;;6.53;5.40;;;;;;;;;;5065594;28;20033;-49
2023/09/29 08:04:57;;;;;;;6.45;6.00;;;;;;;;;;5066597;28;20020;-51
2023/09/29 08:07:23;;;;;;;7.53;4.05;;;;;;;;;;5058847;28;20049;-50
2023/09/29 08:09:49;;;;;;;4.57;3.65;;;;;;;;;;5057779;28;20056;-52
2023/09/29 08:12:15;;;;;;;5.43;3.72;;;;;;;;;;5064379;28;20029;-50
2023/09/29 08:14:41;;;;;;;4.50;4.03;;;;;;;;;;5056982;28;20475;-52
2023/09/29 08:17:06;;;;;;;4.93;4.53;;;;;;;;;;5053474;28;20041;-51
2023/09/29 08:19:33;;;;;;;6.28;5.43;;;;;;;;;;5055923;28;20024;-52
2023/09/29 08:21:59;;;;;;;5.87;4.50;;;;;;;;;;5055511;28;20043;-50
2023/09/29 08:24:24;;;;;;;7.70;5.43;;;;;;;;;;5058213;28;20061;-49
2023/09/29 08:26:50;;;;;;;6.95;5.07;;;;;;;;;;5056777;28;20681;-48
2023/09/29 08:29:16;;;;;;;6.55;5.43;;;;;;;;;;5059711;28;20020;-50
2023/09/29 08:31:44;;;;;;;5.13;4.65;;;;;;;;;;5060303;28;20037;-51
2023/09/29 08:34:10;;;;;;;6.78;5.93;;;;;;;;;;5052303;28;20119;-50
2023/09/29 08:36:36;;;;;;;8.93;7.00;;;;;;;;;;5056596;28;21464;-49
2023/09/29 08:39:01;;;;;;;8.45;7.72;;;;;;;;;;5058270;28;20301;-50
2023/09/29 08:41:29;;;;;;;10.95;7.38;;;;;;;;;;5060136;28;20058;-50
2023/09/29 08:43:55;;;;;;;10.82;8.15;;;;;;;;;;5066224;28;20043;-50
2023/09/29 08:46:21;;;;;;;10.68;9.07;;;;;;;;;;5059660;28;20052;-48
2023/09/29 08:48:47;;;;;;;13.15;11.70;;;;;;;;;;5063043;28;20033;-48
2023/09/29 08:51:14;;;;;;;12.57;11.27;;;;;;;;;;5055635;28;20068;-52
2023/09/29 08:53:42;;;;;;;15.13;13.38;;;;;;;;;;5061285;28;20025;-49
2023/09/29 08:56:12;;;;;;;15.07;11.93;;;;;;;;;;5058568;28;20128;-51
2023/09/29 08:58:38;;;;;;;15.07;11.38;;;;;;;;;;5059992;28;20036;-48
2023/09/29 09:01:05;;;;;;;15.43;13.35;;;;;;;;;;5057237;28;20045;-53
2023/09/29 09:03:30;;;;;;;17.70;11.50;;;;;;;;;;5054203;28;20513;-49
2023/09/29 09:05:56;;;;;;;14.63;12.10;;;;;;;;;;5057150;28;20041;-49
2023/09/29 09:08:23;;;;;;;14.52;12.30;;;;;;;;;;5050983;28;20040;-52
2023/09/29 09:10:57;;;;;;;13.90;12.02;;;;;;;;;;5057799;28;20128;-49
2023/09/29 09:13:22;;;;;;;17.30;14.77;;;;;;;;;;5053306;28;20078;-50
2023/09/29 09:15:58;;;;;;;19.67;12.77;;;;;;;;;;5055921;28;20036;-49
2023/09/29 09:18:27;;;;;;;16.90;12.35;;;;;;;;;;5058276;28;21156;-49
2023/09/29 09:20:57;;;;;;;15.45;12.20;;;;;;;;;;5054713;28;20120;-51
2023/09/29 09:23:23;;;;;;;17.00;12.93;;;;;;;;;;5054992;28;20029;-50
2023/09/29 09:25:49;;;;;;;16.33;11.00;;;;;;;;;;5065367;28;20035;-51
2023/09/29 09:28:18;;;;;;;17.73;15.15;;;;;;;;;;5062370;28;20025;-54
2023/09/29 09:30:46;;;;;;;15.55;13.10;;;;;;;;;;5058111;28;20037;-50
2023/09/29 09:33:21;;;;;;;15.75;13.98;;;;;;;;;;5059337;28;20032;-52
2023/09/29 09:35:49;;;;;;;19.30;13.48;;;;;;;;;;5058799;28;20068;-48
2023/09/29 09:38:15;;;;;;;18.73;12.88;;;;;;;;;;5055310;28;20032;-48
2023/09/29 09:40:41;;;;;;;15.98;12.80;;;;;;;;;;5053123;28;20041;-49
2023/09/29 09:43:07;;;;;;;15.63;11.18;;;;;;;;;;5056733;28;20028;-52
2023/09/29 09:45:42;;;;;;;14.45;10.93;;;;;;;;;;5059920;28;20063;-53
2023/09/29 09:48:15;;;;;;;15.15;12.00;;;;;;;;;;5062460;28;20041;-50
2023/09/29 09:50:45;;;;;;;17.15;11.60;;;;;;;;;;5052600;28;20399;-48
2023/09/29 09:53:13;;;;;;;14.60;13.20;;;;;;;;;;5061120;28;20021;-52
2023/09/29 09:55:41;;;;;;;20.35;11.75;;;;;;;;;;5055026;28;20087;-53
2023/09/29 09:58:13;;;;;;;13.48;10.55;;;;;;;;;;5044800;28;20055;-51
2023/09/29 10:00:44;;;;;;;14.05;12.52;;;;;;;;;;5059878;28;20029;-50
2023/09/29 10:03:14;;;;;;;14.02;11.98;;;;;;;;;;5057066;28;20478;-51
2023/09/29 10:05:41;;;;;;;10.55;9.43;;;;;;;;;;5058930;28;20041;-53
2023/09/29 10:08:07;;;;;;;10.55;9.05;;;;;;;;;;5055787;28;20025;-51
2023/09/29 10:10:39;;;;;;;11.55;10.10;;;;;;;;;;5054172;28;20097;-51
2023/09/29 10:13:14;;;;;;;12.00;9.60;;;;;;;;;;5061335;28;20020;-53
2023/09/29 10:15:41;;;;;;;10.95;9.02;;;;;;;;;;5053753;28;20044;-53
2023/09/29 10:18:14;;;;;;;12.00;8.18;;;;;;;;;;5062465;28;20121;-49
2023/09/29 10:20:39;;;;;;;9.75;8.75;;;;;;;;;;5064332;28;20041;-51
2023/09/29 10:23:13;;;;;;;11.10;8.48;;;;;;;;;;5056480;28;20033;-53
2023/09/29 10:25:40;;;;;;;9.98;8.60;;;;;;;;;;5052290;28;20033;-53
2023/09/29 10:28:07;;;;;;;9.35;8.30;;;;;;;;;;5058448;28;20017;-53
2023/09/29 10:30:33;;;;;;;9.88;8.38;;;;;;;;;;5050404;28;20455;-53
2023/09/29 10:33:05;;;;;;;11.10;10.05;;;;;;;;;;5063332;28;20025;-52
2023/09/29 10:35:33;;;;;;;8.93;8.00;;;;;;;;;;5057609;28;20028;-53
2023/09/29 10:38:06;;;;;;;9.20;7.97;;;;;;;;;;5058352;28;20033;-49
2023/09/29 10:40:32;;;;;;;9.00;7.95;;;;;;;;;;5055431;28;20037;-49
2023/09/29 10:43:02;;;;;;;10.68;7.70;;;;;;;;;;5053566;28;20105;-50
2023/09/29 10:45:31;;;;;;;10.40;8.13;;;;;;;;;;5053292;28;20057;-52
2023/09/29 10:48:01;;;;;;;8.35;7.55;;;;;;;;;;5056619;28;20036;-50
2023/09/29 10:50:28;;;;;;;7.75;6.97;;;;;;;;;;5060505;28;20052;-52
2023/09/29 10:52:53;;;;;;;9.68;8.05;;;;;;;;;;5057924;28;20047;-53
2023/09/29 10:55:19;;;;;;;7.35;6.55;;;;;;;;;;5055111;28;20041;-52
2023/09/29 10:57:46;;;;;;;6.85;6.20;;;;;;;;;;5055362;28;20036;-52
2023/09/29 11:00:14;;;;;;;8.63;7.75;;;;;;;;;;5052188;28;20056;-51
2023/09/29 11:02:40;;;;;;;7.10;5.88;;;;;;;;;;5063019;28;20054;-54
2023/09/29 11:05:09;;;;;;;6.53;5.93;;;;;;;;;;5058983;28;20051;-50
2023/09/29 11:07:50;;;;;;;7.07;5.40;;;;;;;;;;5057947;28;20119;-50
2023/09/29 11:10:17;;;;;;;6.03;5.10;;;;;;;;;;5051557;28;20053;-50
2023/09/29 11:12:46;;;;;;;6.45;5.85;;;;;;;;;;5055669;28;20070;-52
2023/09/29 11:15:13;;;;;;;7.90;6.20;;;;;;;;;;5055307;28;20052;-53
2023/09/29 11:17:46;;;;;;;6.50;5.10;;;;;;;;;;5054028;28;20037;-52
2023/09/29 11:20:24;;;;;;;7.03;4.85;;;;;;;;;;5054977;28;20112;-51
2023/09/29 11:23:11;;;;;;;5.55;5.00;;;;;;;;;;5053663;28;20044;-53
2023/09/29 11:25:47;;;;;;;5.80;5.20;;;;;;;;;;5057123;28;20406;-50
2023/09/29 11:28:13;;;;;;;7.57;6.55;;;;;;;;;;5056279;28;20028;-54
2023/09/29 11:30:39;;;;;;;9.07;5.15;;;;;;;;;;5054013;28;20037;-51
2023/09/29 11:33:06;;;;;;;7.57;5.80;;;;;;;;;;5053907;28;20390;-51
2023/09/29 11:35:32;;;;;;;5.45;3.92;;;;;;;;;;5059812;28;20544;-48
2023/09/29 11:37:57;;;;;;;6.10;5.50;;;;;;;;;;5060860;28;20033;-51
2023/09/29 11:40:23;;;;;;;5.88;4.60;;;;;;;;;;5061598;28;20148;-49
2023/09/29 11:42:49;;;;;;;8.70;5.35;;;;;;;;;;5062079;28;20429;-50
2023/09/29 11:45:15;;;;;;;10.30;6.43;;;;;;;;;;5058277;28;20179;-48
2023/09/29 11:47:44;;;;;;;7.53;5.15;;;;;;;;;;5059025;28;20056;-53
2023/09/29 11:50:10;;;;;;;6.68;5.70;;;;;;;;;;5062351;28;20050;-52
2023/09/29 11:52:39;;;;;;;8.13;6.25;;;;;;;;;;5058151;28;20021;-52
2023/09/29 11:55:08;;;;;;;8.48;7.47;;;;;;;;;;5049398;28;20031;-49
2023/09/29 11:57:37;;;;;;;6.80;6.30;;;;;;;;;;5058871;28;20713;-48
2023/09/29 12:00:10;;;;;;;5.63;4.65;;;;;;;;;;5059122;28;20109;-52
2023/09/29 12:02:36;;;;;;;6.88;5.55;;;;;;;;;;5061389;28;20039;-51
2023/09/29 12:05:03;;;;;;;6.85;6.07;;;;;;;;;;5063113;28;20032;-50
2023/09/29 12:07:28;;;;;;;6.05;5.55;;;;;;;;;;5058919;28;20401;-50
2023/09/29 12:09:53;;;;;;;7.47;6.03;;;;;;;;;;5058555;28;20108;-51
2023/09/29 12:12:19;;;;;;;6.32;5.72;;;;;;;;;;5059517;28;20041;-53
2023/09/29 12:14:44;;;;;;;5.63;4.15;;;;;;;;;;5059111;28;20033;-47
2023/09/29 12:17:10;;;;;;;6.85;6.13;;;;;;;;;;5060308;28;20406;-50
2023/09/29 12:19:35;;;;;;;4.93;4.43;;;;;;;;;;5060265;28;20040;-52
2023/09/29 12:22:01;;;;;;;5.78;5.18;;;;;;;;;;5063895;28;20051;-50
2023/09/29 12:24:26;;;;;;;6.65;5.15;;;;;;;;;;5058495;28;20105;-49
2023/09/29 12:26:52;;;;;;;9.38;5.93;;;;;;;;;;5057303;28;20037;-52
2023/09/29 12:29:17;;;;;;;6.65;4.93;;;;;;;;;;5057908;28;20083;-50
2023/09/29 12:31:42;;;;;;;6.38;5.63;;;;;;;;;;5058175;28;20462;-51
2023/09/29 12:34:08;;;;;;;5.97;5.32;;;;;;;;;;5061686;28;20456;-52
2023/09/29 12:36:33;;;;;;;5.32;4.53;;;;;;;;;;5057751;28;20033;-52
2023/09/29 12:38:59;;;;;;;6.32;5.70;;;;;;;;;;5055641;28;20032;-53
2023/09/29 12:41:25;;;;;;;6.75;6.05;;;;;;;;;;5057223;28;20033;-49
2023/09/29 12:43:51;;;;;;;8.23;5.05;;;;;;;;;;5052968;28;20919;-51
2023/09/29 12:46:17;;;;;;;6.47;5.50;;;;;;;;;;5055414;28;20064;-52
2023/09/29 12:48:43;;;;;;;5.80;5.20;;;;;;;;;;5056961;28;20028;-53
2023/09/29 12:51:18;;;;;;;6.68;5.90;;;;;;;;;;5058331;28;20037;-51
2023/09/29 12:53:44;;;;;;;6.10;5.50;;;;;;;;;;5070552;28;20024;-53
2023/09/29 12:56:14;;;;;;;8.55;7.32;;;;;;;;;;5057488;28;20049;-53
2023/09/29 12:58:39;;;;;;;6.80;6.13;;;;;;;;;;5058301;28;20029;-51
2023/09/29 13:01:06;;;;;;;8.98;6.88;;;;;;;;;;5059890;28;20147;-52
2023/09/29 13:03:31;;;;;;;8.35;6.25;;;;;;;;;;5061204;28;20078;-53
2023/09/29 13:06:00;;;;;;;7.38;6.30;;;;;;;;;;5060181;28;20040;-51
2023/09/29 13:08:26;;;;;;;7.35;6.72;;;;;;;;;;5059592;28;20041;-51
2023/09/29 13:10:53;;;;;;;8.23;7.43;;;;;;;;;;5055356;28;20037;-53
2023/09/29 13:13:18;;;;;;;8.18;7.40;;;;;;;;;;5061483;28;20048;-53
2023/09/29 13:15:44;;;;;;;7.43;6.78;;;;;;;;;;5059900;28;20483;-54
2023/09/29 13:18:10;;;;;;;7.70;6.97;;;;;;;;;;5056281;28;20521;-52
2023/09/29 13:20:38;;;;;;;9.35;7.43;;;;;;;;;;5062483;28;20033;-52
2023/09/29 13:23:03;;;;;;;7.03;6.40;;;;;;;;;;5054790;28;20086;-54
2023/09/29 13:25:29;;;;;;;6.95;6.35;;;;;;;;;;5065378;28;20037;-50
2023/09/29 13:27:56;;;;;;;8.73;6.82;;;;;;;;;;5057990;28;20041;-52
2023/09/29 13:30:22;;;;;;;6.88;6.18;;;;;;;;;;5058739;28;20028;-54
2023/09/29 13:32:48;;;;;;;7.30;6.63;;;;;;;;;;5054978;28;20021;-53
2023/09/29 13:35:14;;;;;;;6.95;6.25;;;;;;;;;;5058031;28;20032;-54
2023/09/29 13:37:41;;;;;;;9.25;8.45;;;;;;;;;;5057447;28;20107;-50
2023/09/29 13:40:07;;;;;;;7.63;6.60;;;;;;;;;;5054556;28;20100;-52
2023/09/29 13:42:32;;;;;;;6.43;5.85;;;;;;;;;;5055519;28;20031;-52
2023/09/29 13:44:58;;;;;;;7.57;6.95;;;;;;;;;;5058369;28;20473;-50
2023/09/29 13:47:26;;;;;;;9.07;6.63;;;;;;;;;;5056135;28;20449;-53
2023/09/29 13:49:52;;;;;;;6.25;4.57;;;;;;;;;;5054638;28;20474;-53
2023/09/29 13:52:19;;;;;;;6.40;5.80;;;;;;;;;;5055297;28;20079;-54
2023/09/29 13:54:46;;;;;;;6.10;4.50;;;;;;;;;;5056765;28;20384;-52
2023/09/29 13:57:12;;;;;;;5.05;4.60;;;;;;;;;;5064052;28;20131;-53
2023/09/29 13:59:37;;;;;;;5.22;4.72;;;;;;;;;;5055703;28;20078;-50
2023/09/29 14:02:07;;;;;;;6.72;5.82;;;;;;;;;;5066906;28;20045;-52
2023/09/29 14:04:35;;;;;;;5.90;5.28;;;;;;;;;;5054231;28;20021;-52
2023/09/29 14:07:01;;;;;;;;;;;;;;;;;;5056714;28;20411;-51
2023/09/29 14:09:27;;;;;;;6.15;4.28;;;;;;;;;;5057230;28;19962;-53
2023/09/29 14:11:52;;;;;;;6.00;5.50;;;;;;;;;;5053966;28;20702;-52
2023/09/29 14:14:19;;;;;;;5.13;4.50;;;;;;;;;;5055717;28;20478;-50
2023/09/29 14:16:45;;;;;;;6.28;4.47;;;;;;;;;;5064714;28;20510;-53
2023/09/29 14:19:10;;;;;;;6.15;5.55;;;;;;;;;;5056642;28;20041;-54
2023/09/29 14:21:36;;;;;;;5.38;4.85;;;;;;;;;;5053618;28;20105;-53
2023/09/29 14:24:03;;;;;;;6.90;6.05;;;;;;;;;;5057779;28;21197;-53
2023/09/29 14:26:28;;;;;;;5.60;4.60;;;;;;;;;;5063006;28;20037;-53
2023/09/29 14:28:55;;;;;;;6.13;5.50;;;;;;;;;;5056622;28;20050;-52
2023/09/29 14:31:21;;;;;;;6.95;6.35;;;;;;;;;;5056548;28;20037;-47
2023/09/29 14:33:47;;;;;;;7.10;6.40;;;;;;;;;;5065711;28;20039;-50